sensor_id;sensor_type;location;lat;lon;timestamp;temperature;humidity
30973;DHT22;25423;45.624;13.790;2022-12-29T00:02:03;11.40;99.90
30973;DHT22;25423;45.624;13.790;2022-12-29T00:04:28;11.40;99.90
30973;DHT22;25423;45.624;13.790;2022-12-29T00:06:54;11.40;99.90
30973;DHT22;25423;45.624;13.790;2022-12-29T00:09:20;11.30;99.90
30973;DHT22;25423;45.624;13.790;2022-12-29T00:11:45;11.20;99.90
30973;DHT22;25423;45.624;13.790;2022-12-29T00:14:11;11.20;99.90
30973;DHT22;25423;45.624;13.790;2022-12-29T00:16:56;11.20;99.90
30973;DHT22;25423;45.624;13.790;2022-12-29T00:19:21;11.10;99.90
30973;DHT22;25423;45.624;13.790;2022-12-29T00:22:05;11.10;99.90
30973;DHT22;25423;45.624;13.790;2022-12-29T00:24:49;11.10;99.90
30973;DHT22;25423;45.624;13.790;2022-12-29T00:27:31;11.10;99.90
30973;DHT22;25423;45.624;13.790;2022-12-29T00:30:16;11.10;99.90
30973;DHT22;25423;45.624;13.790;2022-12-29T00:33:00;11.20;99.90
30973;DHT22;25423;45.624;13.790;2022-12-29T00:35:45;11.20;99.90
30973;DHT22;25423;45.624;13.790;2022-12-29T00:38:15;11.20;99.90
30973;DHT22;25423;45.624;13.790;2022-12-29T00:40:59;11.20;99.90
30973;DHT22;25423;45.624;13.790;2022-12-29T00:43:43;11.20;99.90
30973;DHT22;25423;45.624;13.790;2022-12-29T00:46:27;11.10;99.90
30973;DHT22;25423;45.624;13.790;2022-12-29T00:48:53;11.20;99.90
30973;DHT22;25423;45.624;13.790;2022-12-29T00:51:37;11.20;99.90
30973;DHT22;25423;45.624;13.790;2022-12-29T00:54:03;11.20;99.90
30973;DHT22;25423;45.624;13.790;2022-12-29T00:56:28;11.30;99.90
30973;DHT22;25423;45.624;13.790;2022-12-29T00:58:54;11.30;99.90
30973;DHT22;25423;45.624;13.790;2022-12-29T01:01:19;11.20;99.90
30973;DHT22;25423;45.624;13.790;2022-12-29T01:03:45;11.10;99.90
30973;DHT22;25423;45.624;13.790;2022-12-29T01:06:11;11.20;99.90
30973;DHT22;25423;45.624;13.790;2022-12-29T01:08:37;11.10;99.90
30973;DHT22;25423;45.624;13.790;2022-12-29T01:11:04;11.10;99.90
30973;DHT22;25423;45.624;13.790;2022-12-29T01:13:30;11.20;99.90
30973;DHT22;25423;45.624;13.790;2022-12-29T01:15:55;11.20;99.90
30973;DHT22;25423;45.624;13.790;2022-12-29T01:18:21;11.10;99.90
30973;DHT22;25423;45.624;13.790;2022-12-29T01:20:47;11.10;99.90
30973;DHT22;25423;45.624;13.790;2022-12-29T01:23:13;11.10;99.90
30973;DHT22;25423;45.624;13.790;2022-12-29T01:25:38;11.10;99.90
30973;DHT22;25423;45.624;13.790;2022-12-29T01:28:04;11.00;99.90
30973;DHT22;25423;45.624;13.790;2022-12-29T01:30:30;11.10;99.90
30973;DHT22;25423;45.624;13.790;2022-12-29T01:32:55;11.00;99.90
30973;DHT22;25423;45.624;13.790;2022-12-29T01:35:21;11.00;99.90
30973;DHT22;25423;45.624;13.790;2022-12-29T01:37:46;11.20;99.90
30973;DHT22;25423;45.624;13.790;2022-12-29T01:40:12;11.10;99.90
30973;DHT22;25423;45.624;13.790;2022-12-29T01:42:38;11.10;99.90
30973;DHT22;25423;45.624;13.790;2022-12-29T01:45:10;11.10;99.90
30973;DHT22;25423;45.624;13.790;2022-12-29T01:47:41;11.10;99.90
30973;DHT22;25423;45.624;13.790;2022-12-29T01:50:50;11.00;99.90
30973;DHT22;25423;45.624;13.790;2022-12-29T01:53:00;11.10;99.90
30973;DHT22;25423;45.624;13.790;2022-12-29T01:55:27;11.10;99.90
30973;DHT22;25423;45.624;13.790;2022-12-29T01:57:54;11.10;99.90
30973;DHT22;25423;45.624;13.790;2022-12-29T02:00:21;11.10;99.90
30973;DHT22;25423;45.624;13.790;2022-12-29T02:02:53;11.10;99.90
30973;DHT22;25423;45.624;13.790;2022-12-29T02:05:30;11.10;99.90
30973;DHT22;25423;45.624;13.790;2022-12-29T02:07:57;11.20;99.90
30973;DHT22;25423;45.624;13.790;2022-12-29T02:10:24;11.20;99.90
30973;DHT22;25423;45.624;13.790;2022-12-29T02:12:51;11.20;99.90
30973;DHT22;25423;45.624;13.790;2022-12-29T02:15:17;11.20;99.90
30973;DHT22;25423;45.624;13.790;2022-12-29T02:33:43;11.10;99.90
30973;DHT22;25423;45.624;13.790;2022-12-29T02:35:50;11.20;99.90
30973;DHT22;25423;45.624;13.790;2022-12-29T02:38:31;11.10;99.90
30973;DHT22;25423;45.624;13.790;2022-12-29T02:51:08;10.90;99.90
30973;DHT22;25423;45.624;13.790;2022-12-29T02:53:34;10.90;99.90
30973;DHT22;25423;45.624;13.790;2022-12-29T02:56:20;10.80;99.90
30973;DHT22;25423;45.624;13.790;2022-12-29T02:58:46;10.80;99.90
30973;DHT22;25423;45.624;13.790;2022-12-29T03:01:21;10.80;99.90
30973;DHT22;25423;45.624;13.790;2022-12-29T03:08:55;10.80;99.90
30973;DHT22;25423;45.624;13.790;2022-12-29T03:11:25;10.90;99.90
30973;DHT22;25423;45.624;13.790;2022-12-29T03:14:16;10.90;99.90
30973;DHT22;25423;45.624;13.790;2022-12-29T03:17:09;10.90;99.90
30973;DHT22;25423;45.624;13.790;2022-12-29T03:19:42;10.90;99.90
30973;DHT22;25423;45.624;13.790;2022-12-29T03:22:12;10.80;99.90
30973;DHT22;25423;45.624;13.790;2022-12-29T03:25:01;10.90;99.90
30973;DHT22;25423;45.624;13.790;2022-12-29T03:27:32;10.80;99.90
30973;DHT22;25423;45.624;13.790;2022-12-29T03:30:00;10.90;99.90
30973;DHT22;25423;45.624;13.790;2022-12-29T03:32:29;10.90;99.90
30973;DHT22;25423;45.624;13.790;2022-12-29T03:34:56;10.90;99.90
30973;DHT22;25423;45.624;13.790;2022-12-29T03:37:30;10.90;99.90
30973;DHT22;25423;45.624;13.790;2022-12-29T03:39:58;10.80;99.90
30973;DHT22;25423;45.624;13.790;2022-12-29T03:42:25;10.90;99.90
30973;DHT22;25423;45.624;13.790;2022-12-29T03:44:53;10.90;99.90
30973;DHT22;25423;45.624;13.790;2022-12-29T03:47:20;10.90;99.90
30973;DHT22;25423;45.624;13.790;2022-12-29T03:49:46;10.90;99.90
30973;DHT22;25423;45.624;13.790;2022-12-29T03:52:11;10.90;99.90
30973;DHT22;25423;45.624;13.790;2022-12-29T03:54:37;10.80;99.90
30973;DHT22;25423;45.624;13.790;2022-12-29T03:57:03;10.80;99.90
30973;DHT22;25423;45.624;13.790;2022-12-29T03:59:28;10.90;99.90
30973;DHT22;25423;45.624;13.790;2022-12-29T04:01:54;10.90;99.90
30973;DHT22;25423;45.624;13.790;2022-12-29T04:04:20;10.90;99.90
30973;DHT22;25423;45.624;13.790;2022-12-29T04:06:45;10.90;99.90
30973;DHT22;25423;45.624;13.790;2022-12-29T04:09:11;10.90;99.90
30973;DHT22;25423;45.624;13.790;2022-12-29T04:11:36;10.90;99.90
30973;DHT22;25423;45.624;13.790;2022-12-29T04:14:02;10.90;99.90
30973;DHT22;25423;45.624;13.790;2022-12-29T04:16:28;11.00;99.90
30973;DHT22;25423;45.624;13.790;2022-12-29T04:18:53;10.90;99.90
30973;DHT22;25423;45.624;13.790;2022-12-29T04:21:19;10.90;99.90
30973;DHT22;25423;45.624;13.790;2022-12-29T04:23:44;11.00;99.90
30973;DHT22;25423;45.624;13.790;2022-12-29T04:26:10;11.00;99.90
30973;DHT22;25423;45.624;13.790;2022-12-29T04:28:36;11.00;99.90
30973;DHT22;25423;45.624;13.790;2022-12-29T04:31:02;11.00;99.90
30973;DHT22;25423;45.624;13.790;2022-12-29T04:33:27;11.00;99.90
30973;DHT22;25423;45.624;13.790;2022-12-29T04:35:53;11.00;99.90
30973;DHT22;25423;45.624;13.790;2022-12-29T04:38:19;11.00;99.90
30973;DHT22;25423;45.624;13.790;2022-12-29T04:40:45;11.00;99.90
30973;DHT22;25423;45.624;13.790;2022-12-29T04:43:11;11.00;99.90
30973;DHT22;25423;45.624;13.790;2022-12-29T04:45:37;11.00;99.90
30973;DHT22;25423;45.624;13.790;2022-12-29T04:48:02;11.00;99.90
30973;DHT22;25423;45.624;13.790;2022-12-29T04:50:28;10.90;99.90
30973;DHT22;25423;45.624;13.790;2022-12-29T04:52:54;10.90;99.90
30973;DHT22;25423;45.624;13.790;2022-12-29T04:55:19;10.90;99.90
30973;DHT22;25423;45.624;13.790;2022-12-29T04:57:45;10.90;99.90
30973;DHT22;25423;45.624;13.790;2022-12-29T05:00:11;10.90;99.90
30973;DHT22;25423;45.624;13.790;2022-12-29T05:02:37;10.90;99.90
30973;DHT22;25423;45.624;13.790;2022-12-29T05:05:03;11.00;99.90
30973;DHT22;25423;45.624;13.790;2022-12-29T05:07:31;10.90;99.90
30973;DHT22;25423;45.624;13.790;2022-12-29T05:09:58;11.00;99.90
30973;DHT22;25423;45.624;13.790;2022-12-29T05:12:24;11.00;99.90
30973;DHT22;25423;45.624;13.790;2022-12-29T05:14:50;11.00;99.90
30973;DHT22;25423;45.624;13.790;2022-12-29T05:17:16;11.00;99.90
30973;DHT22;25423;45.624;13.790;2022-12-29T05:19:42;11.10;99.90
30973;DHT22;25423;45.624;13.790;2022-12-29T05:22:07;11.00;99.90
30973;DHT22;25423;45.624;13.790;2022-12-29T05:24:36;11.00;99.90
30973;DHT22;25423;45.624;13.790;2022-12-29T05:27:02;11.10;99.90
30973;DHT22;25423;45.624;13.790;2022-12-29T05:29:27;11.20;99.90
30973;DHT22;25423;45.624;13.790;2022-12-29T05:31:53;11.20;99.90
30973;DHT22;25423;45.624;13.790;2022-12-29T05:34:18;11.20;99.90
30973;DHT22;25423;45.624;13.790;2022-12-29T05:36:44;11.30;99.90
30973;DHT22;25423;45.624;13.790;2022-12-29T05:39:10;11.20;99.90
30973;DHT22;25423;45.624;13.790;2022-12-29T05:41:35;11.10;99.90
30973;DHT22;25423;45.624;13.790;2022-12-29T05:44:01;11.10;99.90
30973;DHT22;25423;45.624;13.790;2022-12-29T05:46:26;11.10;99.90
30973;DHT22;25423;45.624;13.790;2022-12-29T05:48:52;11.10;99.90
30973;DHT22;25423;45.624;13.790;2022-12-29T05:51:17;11.10;99.90
30973;DHT22;25423;45.624;13.790;2022-12-29T05:53:43;11.10;99.90
30973;DHT22;25423;45.624;13.790;2022-12-29T05:56:09;11.10;99.90
30973;DHT22;25423;45.624;13.790;2022-12-29T05:58:34;11.10;99.90
30973;DHT22;25423;45.624;13.790;2022-12-29T06:01:00;11.10;99.90
30973;DHT22;25423;45.624;13.790;2022-12-29T06:03:25;11.00;99.90
30973;DHT22;25423;45.624;13.790;2022-12-29T06:05:51;11.10;99.90
30973;DHT22;25423;45.624;13.790;2022-12-29T06:08:17;11.10;99.90
30973;DHT22;25423;45.624;13.790;2022-12-29T06:10:42;11.20;99.90
30973;DHT22;25423;45.624;13.790;2022-12-29T06:13:08;11.20;99.90
30973;DHT22;25423;45.624;13.790;2022-12-29T06:15:34;11.30;99.90
30973;DHT22;25423;45.624;13.790;2022-12-29T06:18:00;11.30;99.90
30973;DHT22;25423;45.624;13.790;2022-12-29T06:20:25;11.20;99.90
30973;DHT22;25423;45.624;13.790;2022-12-29T06:22:51;11.30;99.90
30973;DHT22;25423;45.624;13.790;2022-12-29T06:25:16;11.20;99.90
30973;DHT22;25423;45.624;13.790;2022-12-29T06:27:42;11.10;99.90
30973;DHT22;25423;45.624;13.790;2022-12-29T06:30:08;11.10;99.90
30973;DHT22;25423;45.624;13.790;2022-12-29T06:32:34;11.10;99.90
30973;DHT22;25423;45.624;13.790;2022-12-29T06:35:00;11.10;99.90
30973;DHT22;25423;45.624;13.790;2022-12-29T06:37:25;11.10;99.90
30973;DHT22;25423;45.624;13.790;2022-12-29T06:39:51;11.00;99.90
30973;DHT22;25423;45.624;13.790;2022-12-29T06:42:17;11.00;99.90
30973;DHT22;25423;45.624;13.790;2022-12-29T06:44:42;11.00;99.90
30973;DHT22;25423;45.624;13.790;2022-12-29T06:47:08;11.10;99.90
30973;DHT22;25423;45.624;13.790;2022-12-29T06:49:33;11.10;99.90
30973;DHT22;25423;45.624;13.790;2022-12-29T06:51:59;11.00;99.90
30973;DHT22;25423;45.624;13.790;2022-12-29T06:54:26;11.00;99.90
30973;DHT22;25423;45.624;13.790;2022-12-29T06:56:51;11.00;99.90
30973;DHT22;25423;45.624;13.790;2022-12-29T06:59:17;11.00;99.90
30973;DHT22;25423;45.624;13.790;2022-12-29T07:01:43;11.10;99.90
30973;DHT22;25423;45.624;13.790;2022-12-29T07:04:08;11.00;99.90
30973;DHT22;25423;45.624;13.790;2022-12-29T07:06:34;11.00;99.90
30973;DHT22;25423;45.624;13.790;2022-12-29T07:08:59;11.00;99.90
30973;DHT22;25423;45.624;13.790;2022-12-29T07:11:25;10.90;99.90
30973;DHT22;25423;45.624;13.790;2022-12-29T07:13:51;11.00;99.90
30973;DHT22;25423;45.624;13.790;2022-12-29T07:16:16;11.10;99.90
30973;DHT22;25423;45.624;13.790;2022-12-29T07:18:42;11.00;99.90
30973;DHT22;25423;45.624;13.790;2022-12-29T07:21:08;11.00;99.90
30973;DHT22;25423;45.624;13.790;2022-12-29T07:23:33;11.00;99.90
30973;DHT22;25423;45.624;13.790;2022-12-29T07:26:00;11.00;99.90
30973;DHT22;25423;45.624;13.790;2022-12-29T07:28:26;11.00;99.90
30973;DHT22;25423;45.624;13.790;2022-12-29T07:30:51;10.90;99.90
30973;DHT22;25423;45.624;13.790;2022-12-29T07:33:17;10.90;99.90
30973;DHT22;25423;45.624;13.790;2022-12-29T07:35:42;11.00;99.90
30973;DHT22;25423;45.624;13.790;2022-12-29T07:38:08;11.00;99.90
30973;DHT22;25423;45.624;13.790;2022-12-29T07:40:33;11.10;99.90
30973;DHT22;25423;45.624;13.790;2022-12-29T07:42:59;11.10;99.90
30973;DHT22;25423;45.624;13.790;2022-12-29T07:45:24;11.20;99.90
30973;DHT22;25423;45.624;13.790;2022-12-29T07:47:50;11.10;99.90
30973;DHT22;25423;45.624;13.790;2022-12-29T07:50:16;11.20;99.90
30973;DHT22;25423;45.624;13.790;2022-12-29T07:52:41;11.20;99.90
30973;DHT22;25423;45.624;13.790;2022-12-29T07:55:07;11.10;99.90
30973;DHT22;25423;45.624;13.790;2022-12-29T07:57:32;11.10;99.90
30973;DHT22;25423;45.624;13.790;2022-12-29T07:59:58;11.10;99.90
30973;DHT22;25423;45.624;13.790;2022-12-29T08:02:24;11.00;99.90
30973;DHT22;25423;45.624;13.790;2022-12-29T08:04:51;11.00;99.90
30973;DHT22;25423;45.624;13.790;2022-12-29T08:07:16;11.00;99.90
30973;DHT22;25423;45.624;13.790;2022-12-29T08:09:42;11.10;99.90
30973;DHT22;25423;45.624;13.790;2022-12-29T08:12:09;11.10;99.90
30973;DHT22;25423;45.624;13.790;2022-12-29T08:14:35;11.10;99.90
30973;DHT22;25423;45.624;13.790;2022-12-29T08:17:00;11.10;99.90
30973;DHT22;25423;45.624;13.790;2022-12-29T08:19:26;11.10;99.90
30973;DHT22;25423;45.624;13.790;2022-12-29T08:21:52;11.10;99.90
30973;DHT22;25423;45.624;13.790;2022-12-29T08:24:18;11.10;99.90
30973;DHT22;25423;45.624;13.790;2022-12-29T08:26:43;11.10;99.90
30973;DHT22;25423;45.624;13.790;2022-12-29T08:29:09;11.10;99.90
30973;DHT22;25423;45.624;13.790;2022-12-29T08:31:34;11.10;99.90
30973;DHT22;25423;45.624;13.790;2022-12-29T08:34:00;11.20;99.90
30973;DHT22;25423;45.624;13.790;2022-12-29T08:36:26;11.20;99.90
30973;DHT22;25423;45.624;13.790;2022-12-29T08:38:52;11.20;99.90
30973;DHT22;25423;45.624;13.790;2022-12-29T08:41:18;11.20;99.90
30973;DHT22;25423;45.624;13.790;2022-12-29T08:43:47;11.20;99.90
30973;DHT22;25423;45.624;13.790;2022-12-29T08:46:12;11.20;99.90
30973;DHT22;25423;45.624;13.790;2022-12-29T08:48:38;11.10;99.90
30973;DHT22;25423;45.624;13.790;2022-12-29T08:51:03;11.10;99.90
30973;DHT22;25423;45.624;13.790;2022-12-29T08:53:29;11.20;99.90
30973;DHT22;25423;45.624;13.790;2022-12-29T08:55:56;11.20;99.90
30973;DHT22;25423;45.624;13.790;2022-12-29T08:58:22;11.30;99.90
30973;DHT22;25423;45.624;13.790;2022-12-29T09:00:47;11.20;99.90
30973;DHT22;25423;45.624;13.790;2022-12-29T09:03:13;11.20;99.90
30973;DHT22;25423;45.624;13.790;2022-12-29T09:05:38;11.20;99.90
30973;DHT22;25423;45.624;13.790;2022-12-29T09:08:04;11.10;99.90
30973;DHT22;25423;45.624;13.790;2022-12-29T09:10:30;11.20;99.90
30973;DHT22;25423;45.624;13.790;2022-12-29T09:12:55;11.10;99.90
30973;DHT22;25423;45.624;13.790;2022-12-29T09:15:21;11.20;99.90
30973;DHT22;25423;45.624;13.790;2022-12-29T09:17:46;11.20;99.90
30973;DHT22;25423;45.624;13.790;2022-12-29T09:20:16;11.10;99.90
30973;DHT22;25423;45.624;13.790;2022-12-29T09:22:42;11.10;99.90
30973;DHT22;25423;45.624;13.790;2022-12-29T09:25:09;11.20;99.90
30973;DHT22;25423;45.624;13.790;2022-12-29T09:27:35;11.20;99.90
30973;DHT22;25423;45.624;13.790;2022-12-29T09:30:01;11.20;99.90
30973;DHT22;25423;45.624;13.790;2022-12-29T09:32:27;11.20;99.90
30973;DHT22;25423;45.624;13.790;2022-12-29T09:34:52;11.20;99.90
30973;DHT22;25423;45.624;13.790;2022-12-29T09:37:18;11.10;99.90
30973;DHT22;25423;45.624;13.790;2022-12-29T09:39:43;11.10;99.90
30973;DHT22;25423;45.624;13.790;2022-12-29T09:42:13;11.20;99.90
30973;DHT22;25423;45.624;13.790;2022-12-29T09:44:48;11.20;99.90
30973;DHT22;25423;45.624;13.790;2022-12-29T09:47:17;11.20;99.90
30973;DHT22;25423;45.624;13.790;2022-12-29T09:52:13;11.20;99.90
30973;DHT22;25423;45.624;13.790;2022-12-29T09:57:15;11.10;99.90
30973;DHT22;25423;45.624;13.790;2022-12-29T09:59:43;11.10;99.90
30973;DHT22;25423;45.624;13.790;2022-12-29T10:02:21;11.20;99.90
30973;DHT22;25423;45.624;13.790;2022-12-29T10:04:48;11.30;99.90
30973;DHT22;25423;45.624;13.790;2022-12-29T10:14:58;11.30;99.90
30973;DHT22;25423;45.624;13.790;2022-12-29T10:22:32;11.40;99.90
30973;DHT22;25423;45.624;13.790;2022-12-29T10:25:01;11.40;99.90
30973;DHT22;25423;45.624;13.790;2022-12-29T10:27:30;11.40;99.90
30973;DHT22;25423;45.624;13.790;2022-12-29T10:29:56;11.40;99.90
30973;DHT22;25423;45.624;13.790;2022-12-29T10:32:57;11.40;99.90
30973;DHT22;25423;45.624;13.790;2022-12-29T10:35:22;11.40;99.90
30973;DHT22;25423;45.624;13.790;2022-12-29T10:40:40;11.50;99.90
30973;DHT22;25423;45.624;13.790;2022-12-29T10:43:14;11.50;99.90
30973;DHT22;25423;45.624;13.790;2022-12-29T10:45:42;11.60;99.90
30973;DHT22;25423;45.624;13.790;2022-12-29T10:48:09;11.60;99.90
30973;DHT22;25423;45.624;13.790;2022-12-29T10:50:38;11.60;99.90
30973;DHT22;25423;45.624;13.790;2022-12-29T10:53:15;11.60;99.90
30973;DHT22;25423;45.624;13.790;2022-12-29T10:55:42;11.60;99.90
30973;DHT22;25423;45.624;13.790;2022-12-29T10:58:10;11.70;99.90
30973;DHT22;25423;45.624;13.790;2022-12-29T11:00:36;11.70;99.90
30973;DHT22;25423;45.624;13.790;2022-12-29T11:05:36;11.80;99.90
30973;DHT22;25423;45.624;13.790;2022-12-29T11:08:04;11.90;99.90
30973;DHT22;25423;45.624;13.790;2022-12-29T11:15:24;11.80;99.90
30973;DHT22;25423;45.624;13.790;2022-12-29T11:17:52;11.80;99.90
30973;DHT22;25423;45.624;13.790;2022-12-29T11:20:37;11.80;99.90
30973;DHT22;25423;45.624;13.790;2022-12-29T11:23:03;11.80;99.90
30973;DHT22;25423;45.624;13.790;2022-12-29T11:25:29;11.80;99.90
30973;DHT22;25423;45.624;13.790;2022-12-29T11:27:56;11.80;99.90
30973;DHT22;25423;45.624;13.790;2022-12-29T11:30:22;11.80;99.90
30973;DHT22;25423;45.624;13.790;2022-12-29T11:32:52;11.70;99.90
30973;DHT22;25423;45.624;13.790;2022-12-29T11:37:59;11.70;99.90
30973;DHT22;25423;45.624;13.790;2022-12-29T11:40:25;11.70;99.90
30973;DHT22;25423;45.624;13.790;2022-12-29T11:42:52;11.70;99.90
30973;DHT22;25423;45.624;13.790;2022-12-29T11:45:19;11.70;99.90
30973;DHT22;25423;45.624;13.790;2022-12-29T11:47:47;11.70;99.90
30973;DHT22;25423;45.624;13.790;2022-12-29T11:50:20;11.70;99.90
30973;DHT22;25423;45.624;13.790;2022-12-29T11:52:46;11.70;99.90
30973;DHT22;25423;45.624;13.790;2022-12-29T11:55:17;11.70;99.90
30973;DHT22;25423;45.624;13.790;2022-12-29T11:57:47;11.70;99.90
30973;DHT22;25423;45.624;13.790;2022-12-29T12:00:17;11.70;99.90
30973;DHT22;25423;45.624;13.790;2022-12-29T12:02:44;11.70;99.90
30973;DHT22;25423;45.624;13.790;2022-12-29T12:05:13;11.70;99.90
30973;DHT22;25423;45.624;13.790;2022-12-29T12:07:40;11.80;99.90
30973;DHT22;25423;45.624;13.790;2022-12-29T12:10:10;11.80;99.90
30973;DHT22;25423;45.624;13.790;2022-12-29T12:12:40;11.90;99.90
30973;DHT22;25423;45.624;13.790;2022-12-29T12:15:12;11.90;99.90
30973;DHT22;25423;45.624;13.790;2022-12-29T12:17:55;11.90;99.90
30973;DHT22;25423;45.624;13.790;2022-12-29T12:25:34;12.20;99.90
30973;DHT22;25423;45.624;13.790;2022-12-29T12:28:13;12.30;99.90
30973;DHT22;25423;45.624;13.790;2022-12-29T12:30:43;12.20;99.90
30973;DHT22;25423;45.624;13.790;2022-12-29T12:40:57;12.40;99.90
30973;DHT22;25423;45.624;13.790;2022-12-29T12:43:43;12.40;99.90
30973;DHT22;25423;45.624;13.790;2022-12-29T13:07:13;12.00;99.90
30973;DHT22;25423;45.624;13.790;2022-12-29T13:10:04;12.00;99.90
30973;DHT22;25423;45.624;13.790;2022-12-29T13:12:15;12.00;99.90
30973;DHT22;25423;45.624;13.790;2022-12-29T13:14:51;11.90;99.90
30973;DHT22;25423;45.624;13.790;2022-12-29T13:17:20;11.90;99.90
30973;DHT22;25423;45.624;13.790;2022-12-29T13:27:15;12.00;99.90
30973;DHT22;25423;45.624;13.790;2022-12-29T13:32:12;12.00;99.90
30973;DHT22;25423;45.624;13.790;2022-12-29T13:37:26;12.00;99.90
30973;DHT22;25423;45.624;13.790;2022-12-29T13:39:58;12.00;99.90
30973;DHT22;25423;45.624;13.790;2022-12-29T13:42:25;12.00;99.90
30973;DHT22;25423;45.624;13.790;2022-12-29T13:44:56;12.00;99.90
30973;DHT22;25423;45.624;13.790;2022-12-29T13:49:51;11.90;99.90
30973;DHT22;25423;45.624;13.790;2022-12-29T13:52:21;12.00;99.90
30973;DHT22;25423;45.624;13.790;2022-12-29T14:07:24;11.80;99.90
30973;DHT22;25423;45.624;13.790;2022-12-29T14:09:50;11.70;99.90
30973;DHT22;25423;45.624;13.790;2022-12-29T14:17:36;11.70;99.90
30973;DHT22;25423;45.624;13.790;2022-12-29T14:20:02;11.80;99.90
30973;DHT22;25423;45.624;13.790;2022-12-29T14:22:29;11.70;99.90
30973;DHT22;25423;45.624;13.790;2022-12-29T14:24:54;11.70;99.90
30973;DHT22;25423;45.624;13.790;2022-12-29T14:29:46;11.80;99.90
30973;DHT22;25423;45.624;13.790;2022-12-29T14:34:53;11.70;99.90
30973;DHT22;25423;45.624;13.790;2022-12-29T14:39:48;11.70;99.90
30973;DHT22;25423;45.624;13.790;2022-12-29T14:42:14;11.70;99.90
30973;DHT22;25423;45.624;13.790;2022-12-29T14:44:46;11.70;99.90
30973;DHT22;25423;45.624;13.790;2022-12-29T14:47:16;11.80;99.90
30973;DHT22;25423;45.624;13.790;2022-12-29T14:49:43;11.90;99.90
30973;DHT22;25423;45.624;13.790;2022-12-29T14:52:13;11.80;99.90
30973;DHT22;25423;45.624;13.790;2022-12-29T14:54:52;11.80;99.90
30973;DHT22;25423;45.624;13.790;2022-12-29T14:57:28;11.80;99.90
30973;DHT22;25423;45.624;13.790;2022-12-29T15:00:06;11.80;99.90
30973;DHT22;25423;45.624;13.790;2022-12-29T15:02:34;11.80;99.90
30973;DHT22;25423;45.624;13.790;2022-12-29T15:05:00;11.90;99.90
30973;DHT22;25423;45.624;13.790;2022-12-29T15:07:27;11.80;99.90
30973;DHT22;25423;45.624;13.790;2022-12-29T15:09:56;11.90;99.90
30973;DHT22;25423;45.624;13.790;2022-12-29T15:12:29;11.90;99.90
30973;DHT22;25423;45.624;13.790;2022-12-29T15:14:59;11.80;99.90
30973;DHT22;25423;45.624;13.790;2022-12-29T15:17:26;11.80;99.90
30973;DHT22;25423;45.624;13.790;2022-12-29T15:19:52;11.80;99.90
30973;DHT22;25423;45.624;13.790;2022-12-29T15:22:18;11.80;99.90
30973;DHT22;25423;45.624;13.790;2022-12-29T15:24:44;11.70;99.90
30973;DHT22;25423;45.624;13.790;2022-12-29T15:27:12;11.70;99.90
30973;DHT22;25423;45.624;13.790;2022-12-29T15:29:43;11.70;99.90
30973;DHT22;25423;45.624;13.790;2022-12-29T15:34:41;11.70;99.90
30973;DHT22;25423;45.624;13.790;2022-12-29T15:37:07;11.80;99.90
30973;DHT22;25423;45.624;13.790;2022-12-29T15:39:33;11.80;99.90
30973;DHT22;25423;45.624;13.790;2022-12-29T15:42:23;11.80;99.90
30973;DHT22;25423;45.624;13.790;2022-12-29T15:44:45;11.90;99.90
30973;DHT22;25423;45.624;13.790;2022-12-29T15:47:20;11.90;99.90
30973;DHT22;25423;45.624;13.790;2022-12-29T15:49:47;12.00;99.90
30973;DHT22;25423;45.624;13.790;2022-12-29T15:52:17;12.00;99.90
30973;DHT22;25423;45.624;13.790;2022-12-29T15:54:43;11.90;99.90
30973;DHT22;25423;45.624;13.790;2022-12-29T15:57:24;12.00;99.90
30973;DHT22;25423;45.624;13.790;2022-12-29T15:59:50;11.90;99.90
30973;DHT22;25423;45.624;13.790;2022-12-29T16:02:16;11.90;99.90
30973;DHT22;25423;45.624;13.790;2022-12-29T16:04:42;11.80;99.90
30973;DHT22;25423;45.624;13.790;2022-12-29T16:10:21;11.80;99.90
30973;DHT22;25423;45.624;13.790;2022-12-29T16:12:47;11.80;99.90
30973;DHT22;25423;45.624;13.790;2022-12-29T16:15:12;11.70;99.90
30973;DHT22;25423;45.624;13.790;2022-12-29T16:17:46;11.70;99.90
30973;DHT22;25423;45.624;13.790;2022-12-29T16:20:17;11.70;99.90
30973;DHT22;25423;45.624;13.790;2022-12-29T16:22:46;11.70;99.90
30973;DHT22;25423;45.624;13.790;2022-12-29T16:27:40;11.60;99.90
30973;DHT22;25423;45.624;13.790;2022-12-29T16:30:12;11.60;99.90
30973;DHT22;25423;45.624;13.790;2022-12-29T16:32:48;11.60;99.90
30973;DHT22;25423;45.624;13.790;2022-12-29T16:35:18;11.50;99.90
30973;DHT22;25423;45.624;13.790;2022-12-29T16:37:45;11.50;99.90
30973;DHT22;25423;45.624;13.790;2022-12-29T16:48:28;11.60;99.90
30973;DHT22;25423;45.624;13.790;2022-12-29T16:50:35;11.50;99.90
30973;DHT22;25423;45.624;13.790;2022-12-29T16:53:01;11.60;99.90
30973;DHT22;25423;45.624;13.790;2022-12-29T16:55:28;11.60;99.90
30973;DHT22;25423;45.624;13.790;2022-12-29T16:57:54;11.50;99.90
30973;DHT22;25423;45.624;13.790;2022-12-29T17:00:31;11.50;99.90
30973;DHT22;25423;45.624;13.790;2022-12-29T17:02:59;11.60;99.90
30973;DHT22;25423;45.624;13.790;2022-12-29T17:05:25;11.50;99.90
30973;DHT22;25423;45.624;13.790;2022-12-29T17:07:51;11.50;99.90
30973;DHT22;25423;45.624;13.790;2022-12-29T17:10:18;11.50;99.90
30973;DHT22;25423;45.624;13.790;2022-12-29T17:12:44;11.40;99.90
30973;DHT22;25423;45.624;13.790;2022-12-29T17:17:38;11.40;99.90
30973;DHT22;25423;45.624;13.790;2022-12-29T17:20:06;11.40;99.90
30973;DHT22;25423;45.624;13.790;2022-12-29T17:22:32;11.40;99.90
30973;DHT22;25423;45.624;13.790;2022-12-29T17:24:58;11.40;99.90
30973;DHT22;25423;45.624;13.790;2022-12-29T17:27:37;11.40;99.90
30973;DHT22;25423;45.624;13.790;2022-12-29T17:30:12;11.40;99.90
30973;DHT22;25423;45.624;13.790;2022-12-29T17:32:41;11.40;99.90
30973;DHT22;25423;45.624;13.790;2022-12-29T17:35:14;11.40;99.90
30973;DHT22;25423;45.624;13.790;2022-12-29T17:37:40;11.50;99.90
30973;DHT22;25423;45.624;13.790;2022-12-29T17:40:06;11.60;99.90
30973;DHT22;25423;45.624;13.790;2022-12-29T17:42:40;11.60;99.90
30973;DHT22;25423;45.624;13.790;2022-12-29T17:45:11;11.50;99.90
30973;DHT22;25423;45.624;13.790;2022-12-29T17:47:37;11.60;99.90
30973;DHT22;25423;45.624;13.790;2022-12-29T17:50:02;11.60;99.90
30973;DHT22;25423;45.624;13.790;2022-12-29T17:52:28;11.60;99.90
30973;DHT22;25423;45.624;13.790;2022-12-29T17:54:54;11.50;99.90
30973;DHT22;25423;45.624;13.790;2022-12-29T17:57:20;11.60;99.90